createdAt,value
2022-11-06T00:01:12.380Z,21.77
2022-11-06T00:03:39.569Z,21.77
2022-11-06T00:06:30.220Z,21.80
2022-11-06T00:08:59.903Z,21.90
2022-11-06T00:11:27.198Z,21.48
2022-11-06T00:13:54.168Z,21.95
2022-11-06T00:16:21.113Z,21.50
2022-11-06T00:18:48.678Z,20.88
2022-11-06T00:21:18.654Z,21.38
2022-11-06T00:23:46.494Z,22.35
2022-11-06T00:26:19.238Z,22.27
2022-11-06T00:28:46.751Z,21.67
2022-11-06T00:31:18.812Z,21.92
2022-11-06T00:33:45.612Z,21.75
2022-11-06T00:36:15.922Z,23.02
2022-11-06T00:38:43.141Z,21.60
2022-11-06T00:41:13.301Z,21.98
2022-11-06T00:43:40.743Z,22.37
2022-11-06T00:46:10.573Z,21.60
2022-11-06T00:48:38.220Z,20.98
2022-11-06T00:51:12.702Z,21.67
2022-11-06T00:53:40.062Z,20.55
2022-11-06T00:56:15.933Z,21.13
2022-11-06T00:58:43.815Z,20.08
2022-11-06T01:01:13.581Z,21.67
2022-11-06T01:03:41.808Z,20.10
2022-11-06T01:06:16.019Z,21.83
2022-11-06T01:08:43.766Z,21.23
2022-11-06T01:11:18.795Z,22.02
2022-11-06T01:13:46.725Z,21.25
2022-11-06T01:16:15.477Z,20.95
2022-11-06T01:18:44.024Z,21.52
2022-11-06T01:21:14.117Z,22.42
2022-11-06T01:23:41.569Z,19.97
2022-11-06T01:26:11.077Z,22.20
2022-11-06T01:28:40.297Z,21.38
2022-11-06T01:31:10.415Z,21.73
2022-11-06T01:33:37.768Z,21.42
2022-11-06T01:36:05.270Z,21.40
2022-11-06T01:38:32.045Z,21.25
2022-11-06T01:40:58.867Z,21.13
2022-11-06T01:43:45.506Z,20.98
2022-11-06T01:46:12.521Z,21.60
2022-11-06T01:48:42.291Z,21.35
2022-11-06T01:51:09.716Z,20.75
2022-11-06T01:53:37.513Z,22.38
2022-11-06T01:56:07.697Z,22.02
2022-11-06T01:58:37.149Z,21.80
2022-11-06T02:01:05.432Z,22.33
2022-11-06T02:03:32.469Z,22.40
2022-11-06T02:05:59.790Z,22.45
2022-11-06T02:08:26.601Z,22.27
2022-11-06T02:10:53.637Z,23.15
2022-11-06T02:13:24.640Z,22.95
2022-11-06T02:18:43.120Z,21.75
2022-11-06T02:21:15.690Z,22.10
2022-11-06T02:24:14.031Z,22.25
2022-11-06T02:27:02.286Z,21.92
2022-11-06T02:29:38.777Z,21.73
2022-11-06T02:32:10.812Z,21.60
2022-11-06T02:34:40.073Z,21.92
2022-11-06T02:37:18.220Z,21.95
2022-11-06T02:39:48.767Z,21.48
2022-11-06T02:42:20.078Z,21.42
2022-11-06T02:47:18.919Z,20.77
2022-11-06T02:50:01.644Z,20.80
2022-11-06T02:52:38.670Z,21.27
2022-11-06T02:55:10.968Z,20.55
2022-11-06T02:57:42.310Z,20.10
2022-11-06T03:00:15.513Z,20.08
2022-11-06T03:02:53.050Z,21.23
2022-11-06T03:05:29.158Z,21.20
2022-11-06T03:08:25.442Z,20.73
2022-11-06T03:11:24.560Z,21.13
2022-11-06T03:14:19.793Z,20.27
2022-11-06T03:16:56.520Z,20.52
2022-11-06T03:19:38.980Z,20.88
2022-11-06T03:22:18.168Z,20.52
2022-11-06T03:25:00.370Z,20.58
2022-11-06T03:27:35.039Z,19.33
2022-11-06T03:30:11.369Z,19.83
2022-11-06T03:32:53.613Z,19.90
2022-11-06T03:35:26.519Z,19.70
2022-11-06T03:38:01.779Z,20.83
2022-11-06T03:40:32.749Z,20.55
2022-11-06T03:45:32.545Z,18.45
2022-11-06T03:48:11.682Z,20.00
2022-11-06T03:50:47.918Z,20.88
2022-11-06T03:53:21.139Z,20.48
2022-11-06T03:55:55.222Z,20.17
2022-11-06T03:58:25.914Z,20.63
2022-11-06T04:00:56.557Z,21.35
2022-11-06T04:03:32.721Z,19.90
2022-11-06T04:06:25.021Z,19.95
2022-11-06T04:09:15.098Z,20.77
2022-11-06T04:12:03.399Z,20.80
2022-11-06T04:14:32.144Z,20.60
2022-11-06T04:17:02.548Z,19.95
2022-11-06T04:19:29.574Z,20.20
2022-11-06T04:22:32.903Z,21.02
2022-11-06T04:25:24.134Z,20.90
2022-11-06T04:28:07.340Z,19.80
2022-11-06T04:30:43.945Z,20.85
2022-11-06T04:33:21.030Z,20.02
2022-11-06T04:36:18.037Z,20.60
2022-11-06T04:39:05.142Z,20.25
2022-11-06T04:41:49.421Z,20.58
2022-11-06T04:44:29.727Z,19.90
2022-11-06T04:47:03.106Z,19.15
2022-11-06T04:49:34.205Z,19.60
2022-11-06T04:52:04.692Z,18.98
2022-11-06T04:54:32.401Z,19.30
2022-11-06T04:57:00.640Z,19.42
2022-11-06T04:59:28.188Z,19.05
2022-11-06T05:01:54.962Z,18.95
2022-11-06T05:04:21.807Z,19.88
2022-11-06T05:06:48.673Z,19.38
2022-11-06T05:09:15.477Z,19.08
2022-11-06T05:11:42.288Z,19.00
2022-11-06T05:14:09.107Z,18.27
2022-11-06T05:16:36.183Z,19.70
2022-11-06T05:19:03.514Z,19.00
2022-11-06T05:21:48.916Z,19.10
2022-11-06T05:24:15.806Z,18.95
2022-11-06T05:26:42.588Z,18.42
2022-11-06T05:29:09.665Z,19.02
2022-11-06T05:31:36.426Z,18.23
2022-11-06T05:34:03.292Z,18.88
2022-11-06T05:36:30.057Z,20.15
2022-11-06T05:38:56.834Z,20.80
2022-11-06T05:41:23.610Z,20.02
2022-11-06T05:43:50.406Z,20.75
2022-11-06T05:46:42.755Z,21.02
2022-11-06T05:49:03.921Z,20.35
2022-11-06T05:51:30.769Z,20.85
2022-11-06T05:53:57.733Z,20.58
2022-11-06T05:56:24.525Z,20.55
2022-11-06T05:58:51.325Z,20.90
2022-11-06T06:01:18.151Z,20.23
2022-11-06T06:03:44.969Z,21.17
2022-11-06T06:06:11.750Z,20.40
2022-11-06T06:08:38.560Z,20.27
2022-11-06T06:11:07.550Z,21.48
2022-11-06T06:13:36.725Z,21.90
2022-11-06T06:16:04.105Z,22.05
2022-11-06T06:18:30.926Z,21.30
2022-11-06T06:20:59.075Z,21.92
2022-11-06T06:23:26.031Z,21.15
2022-11-06T06:25:52.898Z,22.00
2022-11-06T06:28:19.937Z,21.52
2022-11-06T06:30:46.721Z,22.17
2022-11-06T06:33:13.630Z,22.70
2022-11-06T06:35:40.390Z,23.20
2022-11-06T06:38:07.233Z,22.60
2022-11-06T06:40:33.994Z,22.27
2022-11-06T06:43:00.788Z,22.98
2022-11-06T06:45:27.896Z,22.98
2022-11-06T06:47:54.699Z,22.83
2022-11-06T06:50:21.534Z,22.45
2022-11-06T06:52:48.276Z,22.75
2022-11-06T06:55:15.098Z,22.45
2022-11-06T06:57:41.897Z,22.98
2022-11-06T07:00:09.355Z,22.58
2022-11-06T07:02:36.116Z,22.40
2022-11-06T07:05:02.919Z,21.88
2022-11-06T07:07:30.081Z,22.55
2022-11-06T07:09:56.888Z,22.15
2022-11-06T07:12:23.700Z,22.02
2022-11-06T07:14:50.538Z,22.95
2022-11-06T07:17:17.319Z,22.65
2022-11-06T07:19:44.088Z,22.80
2022-11-06T07:22:10.860Z,22.63
2022-11-06T07:24:37.711Z,22.52
2022-11-06T07:27:04.777Z,22.27
2022-11-06T07:29:31.561Z,21.63
2022-11-06T07:31:58.455Z,21.50
2022-11-06T07:34:25.328Z,22.00
2022-11-06T07:36:52.101Z,21.42
2022-11-06T07:39:18.911Z,21.48
2022-11-06T07:41:45.987Z,21.13
2022-11-06T07:44:13.073Z,22.05
2022-11-06T07:46:39.829Z,21.70
2022-11-06T07:49:06.683Z,21.48
2022-11-06T07:51:33.498Z,21.85
2022-11-06T07:54:00.317Z,21.33
2022-11-06T07:56:27.086Z,20.88
2022-11-06T07:58:53.973Z,21.20
2022-11-06T08:01:20.887Z,21.25
2022-11-06T08:03:47.831Z,20.25
2022-11-06T08:06:14.615Z,20.60
2022-11-06T08:08:41.388Z,20.52
2022-11-06T08:11:10.773Z,20.33
2022-11-06T08:13:38.658Z,20.63
2022-11-06T08:16:08.079Z,20.38
2022-11-06T08:18:35.261Z,20.38
2022-11-06T08:21:02.688Z,21.02
2022-11-06T08:23:29.501Z,20.90
2022-11-06T08:25:58.110Z,20.52
2022-11-06T08:28:26.220Z,20.30
2022-11-06T08:30:54.260Z,20.60
2022-11-06T08:33:22.494Z,20.17
2022-11-06T08:35:49.308Z,19.83
2022-11-06T08:38:17.202Z,20.15
2022-11-06T08:40:46.115Z,20.15
2022-11-06T08:43:16.419Z,20.30
2022-11-06T08:45:43.756Z,20.20
2022-11-06T08:48:11.748Z,20.63
2022-11-06T08:50:39.932Z,19.98
2022-11-06T08:53:08.301Z,20.20
2022-11-06T08:55:37.563Z,20.17
2022-11-06T08:58:05.605Z,20.08
2022-11-06T09:00:32.746Z,20.00
2022-11-06T09:03:05.862Z,20.15
2022-11-06T09:05:32.661Z,20.90
2022-11-06T09:08:00.336Z,20.83
2022-11-06T09:10:28.009Z,21.38
2022-11-06T09:12:55.868Z,21.23
2022-11-06T09:15:22.862Z,20.55
2022-11-06T09:17:51.545Z,20.83
2022-11-06T09:20:20.220Z,20.13
2022-11-06T09:22:47.578Z,20.20
2022-11-06T09:25:14.787Z,20.63
2022-11-06T09:27:54.354Z,20.55
2022-11-06T09:30:26.605Z,19.90
2022-11-06T09:32:56.730Z,20.10
2022-11-06T09:35:25.333Z,19.73
2022-11-06T09:37:52.267Z,20.27
2022-11-06T09:40:26.912Z,19.92
2022-11-06T09:43:12.064Z,19.88
2022-11-06T09:45:41.260Z,20.05
2022-11-06T09:48:11.200Z,19.83
2022-11-06T09:50:44.907Z,19.27
2022-11-06T09:53:19.800Z,19.27
2022-11-06T09:55:49.500Z,20.02
2022-11-06T09:58:24.482Z,19.90
2022-11-06T10:00:54.372Z,20.60
2022-11-06T10:03:35.315Z,19.83
2022-11-06T10:06:02.470Z,19.55
2022-11-06T10:08:30.766Z,19.25
2022-11-06T10:11:07.275Z,19.40
2022-11-06T10:13:56.869Z,18.95
2022-11-06T10:16:51.348Z,19.17
2022-11-06T10:19:39.442Z,19.10
2022-11-06T10:22:18.043Z,18.60
2022-11-06T10:24:47.242Z,18.83
2022-11-06T10:27:17.843Z,19.45
2022-11-06T10:30:05.824Z,18.85
2022-11-06T10:33:00.186Z,18.40
2022-11-06T10:35:37.550Z,18.60
2022-11-06T10:38:14.252Z,18.90
2022-11-06T10:40:44.617Z,18.15
2022-11-06T10:44:02.114Z,18.67
2022-11-06T10:46:44.056Z,18.52
2022-11-06T10:49:35.305Z,18.00
2022-11-06T10:54:55.590Z,19.10
2022-11-06T10:57:31.395Z,18.70
2022-11-06T10:59:59.208Z,17.65
2022-11-06T11:02:36.634Z,18.58
2022-11-06T11:05:11.948Z,17.65
2022-11-06T11:07:38.894Z,17.15
2022-11-06T11:10:23.804Z,17.55
2022-11-06T11:12:55.749Z,16.92
2022-11-06T11:15:47.380Z,17.50
2022-11-06T11:18:31.363Z,17.52
2022-11-06T11:21:08.445Z,16.50
2022-11-06T11:23:35.182Z,16.35
2022-11-06T11:26:28.431Z,15.93
2022-11-06T11:29:01.082Z,16.25
2022-11-06T11:31:33.324Z,15.32
2022-11-06T11:34:03.143Z,16.00
2022-11-06T11:37:03.886Z,16.15
2022-11-06T11:39:36.935Z,15.52
2022-11-06T11:42:32.371Z,15.63
2022-11-06T11:45:14.702Z,15.63
2022-11-06T11:47:44.377Z,15.80
2022-11-06T11:50:33.604Z,15.50
2022-11-06T11:53:09.624Z,15.30
2022-11-06T11:55:45.029Z,15.88
2022-11-06T11:58:24.047Z,14.48
2022-11-06T12:00:57.385Z,15.02
2022-11-06T12:03:29.618Z,15.25
2022-11-06T12:06:08.268Z,15.05
2022-11-06T12:08:35.724Z,15.20
2022-11-06T12:11:04.697Z,14.82
2022-11-06T12:13:31.545Z,14.95
2022-11-06T12:16:07.179Z,13.93
2022-11-06T12:18:46.904Z,14.65
2022-11-06T12:21:37.371Z,15.00
2022-11-06T12:24:13.069Z,15.85
2022-11-06T12:26:55.428Z,15.88
2022-11-06T12:29:32.341Z,14.88
2022-11-06T12:32:17.700Z,15.30
2022-11-06T12:35:05.431Z,15.00
2022-11-06T12:37:54.567Z,15.77
2022-11-06T12:40:43.121Z,14.85
2022-11-06T12:43:28.008Z,14.88
2022-11-06T12:46:16.293Z,15.13
2022-11-06T12:48:45.914Z,15.43
2022-11-06T12:51:21.024Z,14.38
2022-11-06T12:53:58.375Z,14.85
2022-11-06T12:56:54.816Z,15.60
2022-11-06T12:59:43.063Z,14.85
2022-11-06T13:02:19.046Z,14.77
2022-11-06T13:05:00.515Z,14.50
2022-11-06T13:07:40.370Z,14.30
2022-11-06T13:10:33.608Z,14.90
2022-11-06T13:13:17.871Z,15.52
2022-11-06T13:16:10.187Z,15.60
2022-11-06T13:18:40.652Z,15.30
2022-11-06T13:21:15.327Z,15.90
2022-11-06T13:23:50.665Z,15.82
2022-11-06T13:26:42.790Z,15.70
2022-11-06T13:29:12.937Z,15.80
2022-11-06T13:31:58.565Z,15.20
2022-11-06T13:34:38.109Z,15.10
2022-11-06T13:37:18.392Z,16.23
2022-11-06T13:39:59.476Z,15.27
2022-11-06T13:42:51.788Z,16.30
2022-11-06T13:45:20.497Z,16.30
2022-11-06T13:47:55.692Z,15.95
2022-11-06T13:50:32.595Z,16.40
2022-11-06T13:53:28.462Z,15.95
2022-11-06T13:56:07.193Z,15.35
2022-11-06T13:58:52.702Z,15.25
2022-11-06T14:01:38.419Z,15.63
2022-11-06T14:04:52.385Z,17.60
2022-11-06T14:07:22.112Z,16.27
2022-11-06T14:09:49.551Z,16.33
2022-11-06T14:12:23.009Z,17.08
2022-11-06T14:15:10.137Z,17.05
2022-11-06T14:17:36.980Z,16.08
2022-11-06T14:20:28.328Z,15.43
2022-11-06T14:22:55.214Z,16.80
2022-11-06T14:25:27.708Z,15.30
2022-11-06T14:27:54.511Z,16.17
2022-11-06T14:30:50.467Z,16.05
2022-11-06T14:33:51.596Z,17.23
2022-11-06T14:36:24.300Z,16.70
2022-11-06T14:38:52.613Z,15.90
2022-11-06T14:41:34.790Z,18.00
2022-11-06T14:44:22.924Z,16.67
2022-11-06T14:47:20.471Z,17.85
2022-11-06T14:49:52.005Z,17.23
2022-11-06T14:52:20.863Z,16.88
2022-11-06T14:55:04.823Z,16.17
2022-11-06T14:57:53.278Z,17.65
2022-11-06T15:00:54.716Z,17.00
2022-11-06T15:03:33.648Z,16.20
2022-11-06T15:06:29.746Z,16.83
2022-11-06T15:09:05.203Z,18.40
2022-11-06T15:11:49.651Z,16.63
2022-11-06T15:14:16.352Z,17.60
2022-11-06T15:16:47.443Z,18.23
2022-11-06T15:19:38.429Z,17.98
2022-11-06T15:22:23.902Z,14.50
2022-11-06T15:24:57.810Z,15.15
2022-11-06T15:27:33.509Z,16.00
2022-11-06T15:30:03.175Z,14.52
2022-11-06T15:32:35.443Z,14.25
2022-11-06T15:35:15.369Z,15.50
2022-11-06T15:37:46.727Z,13.87
2022-11-06T15:40:52.016Z,13.82
2022-11-06T15:43:24.804Z,14.52
2022-11-06T15:46:09.841Z,13.90
2022-11-06T15:48:36.906Z,13.98
2022-11-06T15:51:20.372Z,14.38
2022-11-06T15:53:47.497Z,13.68
2022-11-06T15:56:17.750Z,14.65
2022-11-06T15:58:44.726Z,14.68
2022-11-06T16:01:11.930Z,14.68
2022-11-06T16:03:52.595Z,14.20
2022-11-06T16:06:20.337Z,14.38
2022-11-06T16:08:48.774Z,14.38
2022-11-06T16:11:19.150Z,14.57
2022-11-06T16:13:46.856Z,15.35
2022-11-06T16:16:34.191Z,15.70
2022-11-06T16:19:03.112Z,16.50
2022-11-06T16:21:35.224Z,17.13
2022-11-06T16:24:12.703Z,17.33
2022-11-06T16:26:46.198Z,18.15
2022-11-06T16:29:33.459Z,18.13
2022-11-06T16:32:04.714Z,17.13
2022-11-06T16:34:31.428Z,17.58
2022-11-06T16:37:04.343Z,18.30
2022-11-06T16:39:47.629Z,18.27
2022-11-06T16:42:36.053Z,17.90
2022-11-06T16:45:18.075Z,17.55
2022-11-06T16:48:07.887Z,18.30
2022-11-06T16:50:52.576Z,18.73
2022-11-06T16:53:24.778Z,17.77
2022-11-06T16:56:03.806Z,16.63
2022-11-06T16:58:34.746Z,17.67
2022-11-06T17:01:06.574Z,16.75
2022-11-06T17:03:49.128Z,16.95
2022-11-06T17:06:30.037Z,17.85
2022-11-06T17:09:03.611Z,18.30
2022-11-06T17:11:33.439Z,17.75
2022-11-06T17:14:11.215Z,17.33
2022-11-06T17:16:47.715Z,17.15
2022-11-06T17:19:17.294Z,18.63
2022-11-06T17:21:45.878Z,18.77
2022-11-06T17:24:37.323Z,19.27
2022-11-06T17:26:59.507Z,17.95
2022-11-06T17:29:26.405Z,18.08
2022-11-06T17:31:53.142Z,19.02
2022-11-06T17:34:19.889Z,18.63
2022-11-06T17:36:46.744Z,17.40
2022-11-06T17:39:13.562Z,17.35
2022-11-06T17:41:40.345Z,18.33
2022-11-06T17:44:12.855Z,18.50
2022-11-06T17:46:42.770Z,16.95
2022-11-06T17:49:15.978Z,17.63
2022-11-06T17:51:53.194Z,16.55
2022-11-06T17:54:22.698Z,17.77
2022-11-06T17:56:51.449Z,17.80
2022-11-06T17:59:18.416Z,17.67
2022-11-06T18:01:47.743Z,18.15
2022-11-06T18:04:14.750Z,18.98
2022-11-06T18:06:44.860Z,19.50
2022-11-06T18:09:11.996Z,17.70
2022-11-06T18:11:38.757Z,18.75
2022-11-06T18:14:05.700Z,19.05
2022-11-06T18:16:37.441Z,19.30
2022-11-06T18:19:08.114Z,18.95
2022-11-06T18:21:35.282Z,18.65
2022-11-06T18:24:02.778Z,19.30
2022-11-06T18:26:29.637Z,18.20
2022-11-06T18:28:56.485Z,19.05
2022-11-06T18:31:23.296Z,18.48
2022-11-06T18:33:50.106Z,17.80
2022-11-06T18:36:16.928Z,17.75
2022-11-06T18:38:44.257Z,16.92
2022-11-06T18:41:16.749Z,17.48
2022-11-06T18:43:44.989Z,16.85
2022-11-06T18:46:14.936Z,16.67
2022-11-06T18:48:42.142Z,17.63
2022-11-06T18:51:11.400Z,16.90
2022-11-06T18:53:39.955Z,17.17
2022-11-06T18:56:11.879Z,16.85
2022-11-06T18:58:40.008Z,16.80
2022-11-06T19:01:13.051Z,16.40
2022-11-06T19:03:40.854Z,16.90
2022-11-06T19:06:10.289Z,16.20
2022-11-06T19:08:37.732Z,17.40
2022-11-06T19:11:05.997Z,16.85
2022-11-06T19:13:33.632Z,16.38
2022-11-06T19:16:00.755Z,16.50
2022-11-06T19:18:32.079Z,18.30
2022-11-06T19:20:59.341Z,17.55
2022-11-06T19:23:26.441Z,16.90
2022-11-06T19:26:10.741Z,17.90
2022-11-06T19:28:40.885Z,17.33
2022-11-06T19:31:08.015Z,17.25
2022-11-06T19:33:36.249Z,17.58
2022-11-06T19:36:03.537Z,17.00
2022-11-06T19:38:30.552Z,17.33
2022-11-06T19:41:00.257Z,17.77
2022-11-06T19:43:28.751Z,17.35
2022-11-06T19:45:56.047Z,17.00
2022-11-06T19:48:23.252Z,17.33
2022-11-06T19:50:59.585Z,17.48
2022-11-06T19:53:27.713Z,17.45
2022-11-06T19:55:56.924Z,17.13
2022-11-06T19:58:24.362Z,17.48
2022-11-06T20:00:51.798Z,16.60
2022-11-06T20:03:18.935Z,16.80
2022-11-06T20:05:45.902Z,16.85
2022-11-06T20:08:13.399Z,17.05
2022-11-06T20:10:41.648Z,17.58
2022-11-06T20:13:08.735Z,18.00
2022-11-06T20:15:36.012Z,17.50
2022-11-06T20:18:02.938Z,17.58
2022-11-06T20:20:34.758Z,17.00
2022-11-06T20:23:02.916Z,17.92
2022-11-06T20:25:30.363Z,16.85
2022-11-06T20:27:57.138Z,17.67
2022-11-06T20:30:23.969Z,17.30
2022-11-06T20:32:50.744Z,17.52
2022-11-06T20:35:19.340Z,17.05
2022-11-06T20:37:46.161Z,17.27
2022-11-06T20:40:13.306Z,17.27
2022-11-06T20:42:40.250Z,18.15
2022-11-06T20:45:07.837Z,18.10
2022-11-06T20:47:34.661Z,17.58
2022-11-06T20:50:01.558Z,17.88
2022-11-06T20:52:28.635Z,18.02
2022-11-06T20:54:55.428Z,17.13
2022-11-06T20:57:22.278Z,17.15
2022-11-06T20:59:49.056Z,17.02
2022-11-06T21:02:15.940Z,17.27
2022-11-06T21:04:43.365Z,16.83
2022-11-06T21:07:10.154Z,17.45
2022-11-06T21:09:37.471Z,17.33
2022-11-06T21:12:04.544Z,16.80
2022-11-06T21:14:31.750Z,17.15
2022-11-06T21:16:58.698Z,17.20
2022-11-06T21:19:25.474Z,17.33
2022-11-06T21:21:56.737Z,17.50
2022-11-06T21:24:24.215Z,17.65
2022-11-06T21:26:55.209Z,17.42
2022-11-06T21:31:50.550Z,17.17
2022-11-06T21:34:19.190Z,16.30
2022-11-06T21:36:46.968Z,16.75
2022-11-06T21:39:19.182Z,16.60
2022-11-06T21:41:46.871Z,17.55
2022-11-06T21:44:18.188Z,17.05
2022-11-06T21:46:46.104Z,17.15
2022-11-06T21:49:13.782Z,17.35
2022-11-06T21:51:41.834Z,17.50
2022-11-06T21:54:29.685Z,16.83
2022-11-06T21:56:56.661Z,16.88
2022-11-06T21:59:28.435Z,16.85
2022-11-06T22:01:55.367Z,17.75
2022-11-06T22:04:22.319Z,17.00
2022-11-06T22:06:49.083Z,16.70
2022-11-06T22:09:19.518Z,16.90
2022-11-06T22:11:48.898Z,16.63
2022-11-06T22:14:17.008Z,17.05
2022-11-06T22:16:47.313Z,16.52
2022-11-06T22:19:15.781Z,16.80
2022-11-06T22:21:43.290Z,17.10
2022-11-06T22:24:12.482Z,17.40
2022-11-06T22:26:39.862Z,17.55
2022-11-06T22:29:11.016Z,17.48
2022-11-06T22:31:38.031Z,17.80
2022-11-06T22:34:04.989Z,17.27
2022-11-06T22:36:32.188Z,17.33
2022-11-06T22:39:00.769Z,17.13
2022-11-06T22:41:27.686Z,17.02
2022-11-06T22:43:58.821Z,16.80
2022-11-06T22:46:26.872Z,17.70
2022-11-06T22:48:54.051Z,18.05
2022-11-06T22:51:24.433Z,18.25
2022-11-06T22:53:52.577Z,18.33
2022-11-06T22:56:21.155Z,19.80
2022-11-06T22:58:48.247Z,19.52
2022-11-06T23:01:15.053Z,19.05
2022-11-06T23:03:44.532Z,19.80
2022-11-06T23:06:11.975Z,19.40
2022-11-06T23:08:52.227Z,19.85
2022-11-06T23:11:27.478Z,19.20
2022-11-06T23:13:58.334Z,19.88
2022-11-06T23:16:45.603Z,19.60
2022-11-06T23:19:16.412Z,19.00
2022-11-06T23:21:44.505Z,19.25
2022-11-06T23:24:15.653Z,19.02
2022-11-06T23:26:44.468Z,19.05
2022-11-06T23:29:11.916Z,19.48
2022-11-06T23:31:41.479Z,19.45
2022-11-06T23:34:09.273Z,18.98
2022-11-06T23:36:37.487Z,19.73
2022-11-06T23:39:05.890Z,18.85
2022-11-06T23:41:46.499Z,19.30
2022-11-06T23:44:34.057Z,18.83
2022-11-06T23:47:01.907Z,19.10
2022-11-06T23:49:29.523Z,19.00
2022-11-06T23:51:59.565Z,17.83
2022-11-06T23:54:32.341Z,18.90
2022-11-06T23:57:05.469Z,17.27
2022-11-06T23:59:32.833Z,19.02
